createdAt,value
2022-08-17T00:03:51.425Z,27.45
2022-08-17T00:09:07.397Z,27.44
2022-08-17T00:14:23.392Z,27.44
2022-08-17T00:19:39.459Z,27.44
2022-08-17T00:24:55.440Z,27.43
2022-08-17T00:30:11.088Z,27.44
2022-08-17T00:35:26.138Z,27.43
2022-08-17T00:40:44.807Z,27.42
2022-08-17T00:46:00.143Z,27.43
2022-08-17T00:51:15.129Z,27.40
2022-08-17T00:56:30.081Z,27.39
2022-08-17T01:01:46.111Z,27.38
2022-08-17T01:07:01.173Z,27.36
2022-08-17T01:12:16.166Z,27.36
2022-08-17T01:17:31.438Z,27.34
2022-08-17T01:22:47.090Z,27.34
2022-08-17T01:28:02.412Z,27.34
2022-08-17T01:33:18.395Z,27.31
2022-08-17T01:38:34.141Z,27.31
2022-08-17T01:43:49.170Z,27.30
2022-08-17T01:49:04.389Z,27.30
2022-08-17T01:54:20.173Z,27.29
2022-08-17T01:59:35.149Z,27.29
2022-08-17T02:04:50.403Z,27.30
2022-08-17T02:10:05.936Z,27.29
2022-08-17T02:15:35.166Z,27.28
2022-08-17T02:20:50.146Z,27.27
2022-08-17T02:26:05.424Z,27.25
2022-08-17T02:31:21.427Z,27.25
2022-08-17T02:36:37.164Z,27.24
2022-08-17T02:41:52.145Z,27.22
2022-08-17T02:47:07.089Z,27.21
2022-08-17T02:52:41.937Z,27.19
2022-08-17T02:57:57.164Z,27.19
2022-08-17T03:03:12.103Z,27.18
2022-08-17T03:08:27.429Z,27.19
2022-08-17T03:13:43.395Z,27.20
2022-08-17T03:19:37.148Z,27.19
2022-08-17T03:24:55.111Z,27.17
2022-08-17T03:30:11.115Z,27.19
2022-08-17T03:35:26.130Z,27.18
2022-08-17T03:40:56.673Z,27.19
2022-08-17T03:46:34.285Z,27.19
2022-08-17T03:51:50.431Z,27.14
2022-08-17T03:57:06.116Z,27.18
2022-08-17T04:02:21.431Z,27.16
2022-08-17T04:07:37.124Z,27.17
2022-08-17T04:12:52.139Z,27.16
2022-08-17T04:18:08.159Z,27.15
2022-08-17T04:23:26.429Z,27.14
2022-08-17T04:28:42.408Z,27.16
2022-08-17T04:33:58.097Z,27.14
2022-08-17T04:39:14.441Z,27.15
2022-08-17T04:44:37.433Z,27.14
2022-08-17T04:49:53.107Z,27.11
2022-08-17T04:55:08.413Z,27.08
2022-08-17T05:00:24.425Z,27.08
2022-08-17T05:05:40.166Z,27.04
2022-08-17T05:10:55.101Z,27.02
2022-08-17T05:16:10.118Z,27.01
2022-08-17T05:21:25.146Z,27.00
2022-08-17T05:26:40.132Z,26.99
2022-08-17T05:31:57.932Z,26.99
2022-08-17T05:37:13.476Z,26.99
2022-08-17T05:42:29.104Z,26.99
2022-08-17T05:47:44.114Z,26.96
2022-08-17T05:52:59.197Z,26.95
2022-08-17T05:58:14.176Z,26.93
2022-08-17T06:03:29.729Z,26.92
2022-08-17T06:08:45.195Z,26.90
2022-08-17T06:14:02.907Z,26.87
2022-08-17T06:19:17.913Z,26.89
2022-08-17T06:24:33.138Z,26.89
2022-08-17T06:29:48.160Z,26.88
2022-08-17T06:35:03.422Z,26.89
2022-08-17T06:40:19.125Z,26.87
2022-08-17T06:45:34.174Z,26.86
2022-08-17T06:50:49.509Z,26.86
2022-08-17T06:56:05.594Z,26.86
2022-08-17T07:01:21.209Z,26.86
2022-08-17T07:06:37.696Z,26.86
2022-08-17T07:11:53.215Z,26.86
2022-08-17T07:17:08.989Z,26.86
2022-08-17T07:22:24.251Z,26.85
2022-08-17T07:27:39.192Z,26.85
2022-08-17T07:32:54.112Z,26.84
2022-08-17T07:38:25.240Z,26.82
2022-08-17T07:43:42.165Z,26.80
2022-08-17T07:48:57.141Z,26.80
2022-08-17T07:54:14.747Z,26.79
2022-08-17T07:59:33.839Z,26.79
2022-08-17T08:05:00.761Z,26.80
2022-08-17T08:10:17.164Z,26.82
2022-08-17T08:15:32.186Z,26.84
2022-08-17T08:20:53.111Z,26.83
2022-08-17T08:26:09.479Z,26.82
2022-08-17T08:31:29.128Z,26.82
2022-08-17T08:37:15.768Z,26.81
2022-08-17T08:42:19.398Z,26.77
2022-08-17T08:47:35.657Z,26.76
2022-08-17T08:52:51.175Z,26.78
2022-08-17T08:58:06.436Z,26.78
2022-08-17T09:03:31.773Z,26.78
2022-08-17T09:08:57.147Z,26.81
2022-08-17T09:14:21.724Z,26.85
2022-08-17T09:19:37.181Z,26.86
2022-08-17T09:24:52.468Z,26.85
2022-08-17T09:30:08.199Z,26.82
2022-08-17T09:35:23.514Z,26.76
2022-08-17T09:40:39.499Z,26.73
2022-08-17T09:45:55.158Z,26.71
2022-08-17T09:51:10.270Z,26.69
2022-08-17T09:56:25.206Z,26.68
2022-08-17T10:01:40.575Z,26.69
2022-08-17T10:06:56.176Z,26.68
2022-08-17T10:12:11.157Z,26.70
2022-08-17T10:17:25.931Z,26.70
2022-08-17T10:22:41.143Z,26.71
2022-08-17T10:27:57.461Z,26.72
2022-08-17T10:33:13.167Z,26.71
2022-08-17T10:38:28.205Z,26.72
2022-08-17T10:43:43.497Z,26.73
2022-08-17T10:49:13.130Z,26.74
2022-08-17T10:54:28.550Z,26.75
2022-08-17T10:59:44.513Z,26.78
2022-08-17T11:05:00.513Z,26.78
2022-08-17T11:10:16.255Z,26.82
2022-08-17T11:15:31.433Z,26.83
2022-08-17T11:20:47.199Z,26.85
2022-08-17T11:26:02.176Z,26.87
2022-08-17T11:31:17.223Z,26.88
2022-08-17T11:36:32.160Z,26.89
2022-08-17T11:41:47.226Z,26.88
2022-08-17T11:47:02.154Z,26.88
2022-08-17T11:52:17.199Z,26.87
2022-08-17T11:57:32.227Z,26.85
2022-08-17T12:02:48.823Z,26.86
2022-08-17T12:08:04.169Z,26.85
2022-08-17T12:13:19.209Z,26.85
2022-08-17T12:18:34.480Z,26.90
2022-08-17T12:23:50.215Z,27.01
2022-08-17T12:29:05.308Z,27.09
